createdAt,value
2018-01-14T00:00:45.567Z,3.41
2018-01-14T00:01:45.555Z,3.41
2018-01-14T00:02:45.546Z,3.42
2018-01-14T00:03:45.532Z,3.34
2018-01-14T00:04:45.517Z,3.37
2018-01-14T00:05:45.509Z,3.42
2018-01-14T00:06:45.498Z,3.41
2018-01-14T00:07:45.481Z,3.40
2018-01-14T00:08:45.468Z,3.37
2018-01-14T00:09:45.461Z,3.34
2018-01-14T00:10:45.448Z,3.31
2018-01-14T00:11:45.437Z,3.31
2018-01-14T00:12:45.426Z,3.37
2018-01-14T00:13:45.412Z,3.26
2018-01-14T00:14:45.403Z,3.25
2018-01-14T00:15:45.393Z,3.37
2018-01-14T00:16:45.379Z,3.29
2018-01-14T00:17:45.378Z,3.29
2018-01-14T00:18:45.356Z,3.29
2018-01-14T00:19:45.348Z,3.26
2018-01-14T00:20:45.335Z,3.31
2018-01-14T00:21:45.315Z,3.29
2018-01-14T00:22:45.327Z,3.26
2018-01-14T00:23:45.297Z,3.26
2018-01-14T00:24:45.281Z,3.36
2018-01-14T00:25:45.301Z,3.29
2018-01-14T00:26:45.263Z,3.23
2018-01-14T00:27:45.253Z,3.21
2018-01-14T00:28:45.235Z,3.28
2018-01-14T00:29:45.220Z,3.26
2018-01-14T00:30:45.209Z,3.21
2018-01-14T00:31:45.197Z,3.26
2018-01-14T00:32:45.187Z,3.21
2018-01-14T00:33:45.218Z,3.23
2018-01-14T00:34:45.155Z,3.25
2018-01-14T00:35:45.148Z,3.25
2018-01-14T00:36:45.165Z,3.26
2018-01-14T00:37:45.122Z,3.13
2018-01-14T00:38:45.131Z,3.26
2018-01-14T00:39:45.104Z,3.14
2018-01-14T00:40:45.088Z,3.14
2018-01-14T00:41:45.073Z,3.25
2018-01-14T00:42:45.063Z,3.23
2018-01-14T00:43:45.046Z,3.18
2018-01-14T00:44:45.036Z,3.26
2018-01-14T00:45:45.025Z,3.13
2018-01-14T00:46:45.017Z,3.14
2018-01-14T00:47:44.998Z,3.16
2018-01-14T00:48:44.998Z,3.11
2018-01-14T00:49:44.972Z,3.13
2018-01-14T00:50:44.963Z,3.13
2018-01-14T00:51:44.972Z,3.16
2018-01-14T00:52:44.955Z,3.14
2018-01-14T00:53:44.934Z,3.13
2018-01-14T00:54:44.931Z,3.18
2018-01-14T00:55:44.903Z,3.10
2018-01-14T00:56:44.904Z,3.14
2018-01-14T00:57:44.894Z,3.13
2018-01-14T00:58:44.867Z,3.18
2018-01-14T00:59:44.863Z,3.18
2018-01-14T01:00:44.847Z,3.13
2018-01-14T01:01:44.833Z,3.03
2018-01-14T01:02:44.818Z,3.07
2018-01-14T01:03:44.810Z,3.10
2018-01-14T01:05:08.554Z,3.11
2018-01-14T01:05:44.780Z,3.05
2018-01-14T01:06:44.773Z,3.08
2018-01-14T01:07:44.756Z,3.03
2018-01-14T01:08:44.744Z,3.07
2018-01-14T01:09:44.733Z,3.04
2018-01-14T01:10:44.718Z,3.04
2018-01-14T01:11:44.706Z,3.08
2018-01-14T01:12:44.691Z,3.01
2018-01-14T01:13:44.683Z,3.01
2018-01-14T01:14:44.675Z,3.03
2018-01-14T01:15:44.658Z,3.01
2018-01-14T01:16:44.646Z,3.00
2018-01-14T01:17:44.632Z,3.00
2018-01-14T01:18:44.622Z,2.97
2018-01-14T01:19:44.636Z,2.98
2018-01-14T01:20:44.599Z,2.97
2018-01-14T01:21:44.603Z,3.01
2018-01-14T01:22:44.590Z,2.93
2018-01-14T01:23:44.561Z,2.98
2018-01-14T01:24:44.548Z,2.97
2018-01-14T01:25:44.545Z,3.03
2018-01-14T01:26:44.535Z,3.01
2018-01-14T01:27:44.511Z,3.03
2018-01-14T01:28:44.527Z,2.97
2018-01-14T01:29:44.497Z,3.01
2018-01-14T01:30:44.475Z,3.05
2018-01-14T01:31:44.460Z,3.00
2018-01-14T01:32:44.447Z,2.98
2018-01-14T01:33:44.463Z,2.95
2018-01-14T01:34:44.426Z,2.92
2018-01-14T01:35:44.415Z,2.90
2018-01-14T01:36:44.399Z,2.90
2018-01-14T01:37:44.386Z,3.00
2018-01-14T01:38:44.374Z,2.93
2018-01-14T01:39:44.361Z,3.00
2018-01-14T01:40:44.357Z,2.98
2018-01-14T01:41:44.342Z,2.85
2018-01-14T01:42:44.323Z,2.85
2018-01-14T01:43:44.321Z,2.87
2018-01-14T01:44:44.305Z,2.87
2018-01-14T01:45:44.293Z,2.87
2018-01-14T01:46:44.276Z,2.87
2018-01-14T01:47:44.262Z,2.86
2018-01-14T01:48:44.253Z,2.86
2018-01-14T01:49:44.241Z,2.92
2018-01-14T01:50:44.230Z,2.92
2018-01-14T01:51:44.221Z,2.87
2018-01-14T01:52:44.212Z,2.89
2018-01-14T01:53:44.199Z,2.87
2018-01-14T01:54:44.193Z,2.85
2018-01-14T01:55:44.170Z,2.86
2018-01-14T01:56:44.158Z,2.87
2018-01-14T01:57:44.155Z,2.83
2018-01-14T01:58:44.132Z,2.77
2018-01-14T01:59:44.117Z,2.89
2018-01-14T02:00:44.102Z,2.80
2018-01-14T02:01:44.095Z,2.79
2018-01-14T02:02:44.099Z,2.77
2018-01-14T02:03:44.076Z,2.79
2018-01-14T02:04:44.057Z,2.69
2018-01-14T02:05:44.044Z,2.79
2018-01-14T02:06:44.032Z,2.72
2018-01-14T02:07:44.016Z,2.79
2018-01-14T02:08:44.007Z,2.75
2018-01-14T02:09:43.996Z,2.75
2018-01-14T02:10:43.982Z,2.79
2018-01-14T02:11:44.006Z,2.86
2018-01-14T02:12:43.953Z,2.86
2018-01-14T02:13:43.943Z,2.83
2018-01-14T02:14:43.956Z,2.85
2018-01-14T02:15:43.943Z,2.79
2018-01-14T02:16:43.908Z,2.74
2018-01-14T02:17:43.898Z,2.80
2018-01-14T02:18:43.883Z,2.71
2018-01-14T02:19:43.871Z,2.72
2018-01-14T02:20:43.855Z,2.75
2018-01-14T02:21:43.851Z,2.83
2018-01-14T02:22:43.844Z,2.74
2018-01-14T02:23:43.823Z,2.71
2018-01-14T02:24:43.809Z,2.79
2018-01-14T02:25:43.798Z,2.79
2018-01-14T02:26:43.784Z,2.69
2018-01-14T02:27:43.770Z,2.77
2018-01-14T02:28:43.754Z,2.83
2018-01-14T02:29:43.747Z,2.72
2018-01-14T02:30:43.761Z,2.79
2018-01-14T02:31:43.721Z,2.80
2018-01-14T02:32:43.709Z,2.79
2018-01-14T02:33:43.694Z,2.67
2018-01-14T02:34:43.680Z,2.79
2018-01-14T02:35:43.667Z,2.68
2018-01-14T02:36:43.659Z,2.77
2018-01-14T02:37:43.647Z,2.71
2018-01-14T02:38:43.631Z,2.65
2018-01-14T02:39:43.622Z,2.71
2018-01-14T02:40:43.616Z,2.71
2018-01-14T02:41:43.599Z,2.72
2018-01-14T02:42:43.579Z,2.74
2018-01-14T02:43:43.571Z,2.68
2018-01-14T02:44:43.557Z,2.71
2018-01-14T02:45:43.546Z,2.74
2018-01-14T02:46:43.533Z,2.74
2018-01-14T02:47:43.520Z,2.68
2018-01-14T02:48:43.512Z,2.68
2018-01-14T02:49:43.496Z,2.68
2018-01-14T02:50:43.485Z,2.68
2018-01-14T02:51:43.473Z,2.67
2018-01-14T02:52:43.458Z,2.64
2018-01-14T02:53:43.447Z,2.67
2018-01-14T02:54:43.434Z,2.68
2018-01-14T02:55:43.422Z,2.71
2018-01-14T02:56:43.406Z,2.74
2018-01-14T02:57:43.397Z,2.69
2018-01-14T02:58:43.388Z,2.68
2018-01-14T02:59:43.377Z,2.72
2018-01-14T03:00:43.365Z,2.67
2018-01-14T03:01:43.353Z,2.69
2018-01-14T03:02:43.330Z,2.74
2018-01-14T03:03:43.344Z,2.65
2018-01-14T03:04:43.305Z,2.74
2018-01-14T03:05:43.292Z,2.77
2018-01-14T03:06:43.325Z,2.67
2018-01-14T03:07:43.281Z,2.69
2018-01-14T03:08:43.280Z,2.69
2018-01-14T03:09:43.245Z,2.68
2018-01-14T03:10:43.260Z,2.71
2018-01-14T03:11:43.236Z,2.71
2018-01-14T03:12:43.238Z,2.67
2018-01-14T03:13:43.198Z,2.69
2018-01-14T03:14:43.203Z,2.68
2018-01-14T03:15:43.171Z,2.60
2018-01-14T03:16:43.155Z,2.65
2018-01-14T03:17:43.154Z,2.69
2018-01-14T03:18:43.129Z,2.64
2018-01-14T03:19:43.129Z,2.65
2018-01-14T03:20:43.152Z,2.64
2018-01-14T03:21:43.093Z,2.71
2018-01-14T03:22:43.086Z,2.67
2018-01-14T03:23:43.070Z,2.65
2018-01-14T03:24:43.062Z,2.56
2018-01-14T03:25:43.056Z,2.61
2018-01-14T03:26:43.035Z,2.53
2018-01-14T03:27:43.034Z,2.57
2018-01-14T03:28:43.011Z,2.62
2018-01-14T03:29:43.004Z,2.62
2018-01-14T03:30:42.986Z,2.60
2018-01-14T03:31:42.971Z,2.65
2018-01-14T03:32:42.962Z,2.56
2018-01-14T03:33:42.982Z,2.62
2018-01-14T03:34:42.932Z,2.57
2018-01-14T03:35:42.919Z,2.56
2018-01-14T03:36:42.908Z,2.57
2018-01-14T03:37:42.894Z,2.65
2018-01-14T03:38:42.910Z,2.62
2018-01-14T03:39:42.871Z,2.53
2018-01-14T03:40:42.861Z,2.60
2018-01-14T03:41:42.874Z,2.60
2018-01-14T03:42:42.831Z,2.56
2018-01-14T03:43:42.818Z,2.51
2018-01-14T03:44:42.805Z,2.56
2018-01-14T03:45:42.793Z,2.54
2018-01-14T03:46:42.806Z,2.54
2018-01-14T03:47:42.793Z,2.53
2018-01-14T03:48:42.761Z,2.56
2018-01-14T03:49:42.744Z,2.51
2018-01-14T03:50:42.733Z,2.49
2018-01-14T03:51:42.720Z,2.56
2018-01-14T03:52:42.718Z,2.47
2018-01-14T03:53:42.715Z,2.49
2018-01-14T03:54:42.718Z,2.54
2018-01-14T03:55:42.679Z,2.50
2018-01-14T03:56:42.665Z,2.54
2018-01-14T03:57:42.646Z,2.61
2018-01-14T03:58:42.634Z,2.54
2018-01-14T03:59:42.617Z,2.50
2018-01-14T04:00:42.606Z,2.56
2018-01-14T04:01:42.594Z,2.50
2018-01-14T04:02:42.582Z,2.51
2018-01-14T04:03:42.576Z,2.46
2018-01-14T04:04:42.557Z,2.47
2018-01-14T04:05:42.541Z,2.56
2018-01-14T04:06:42.534Z,2.54
2018-01-14T04:07:42.521Z,2.57
2018-01-14T04:08:42.503Z,2.44
2018-01-14T04:09:42.493Z,2.43
2018-01-14T04:10:42.483Z,2.50
2018-01-14T04:11:42.470Z,2.51
2018-01-14T04:12:42.454Z,2.51
2018-01-14T04:13:42.447Z,2.49
2018-01-14T04:14:42.434Z,2.50
2018-01-14T04:15:42.418Z,2.61
2018-01-14T04:16:42.406Z,2.51
2018-01-14T04:17:42.390Z,2.51
2018-01-14T04:18:42.380Z,2.50
2018-01-14T04:19:42.367Z,2.51
2018-01-14T04:20:42.362Z,2.50
2018-01-14T04:21:42.342Z,2.51
2018-01-14T04:22:42.328Z,2.51
2018-01-14T04:23:42.320Z,2.51
2018-01-14T04:24:42.309Z,2.42
2018-01-14T04:25:42.291Z,2.49
2018-01-14T04:26:42.285Z,2.43
2018-01-14T04:27:42.267Z,2.53
2018-01-14T04:28:42.268Z,2.49
2018-01-14T04:29:42.248Z,2.39
2018-01-14T04:30:42.225Z,2.51
2018-01-14T04:31:42.217Z,2.51
2018-01-14T04:32:42.208Z,2.49
2018-01-14T04:33:42.192Z,2.50
2018-01-14T04:34:42.197Z,2.49
2018-01-14T04:35:42.167Z,2.50
2018-01-14T04:36:42.164Z,2.49
2018-01-14T04:37:42.142Z,2.47
2018-01-14T04:38:42.133Z,2.44
2018-01-14T04:39:42.116Z,2.43
2018-01-14T04:40:42.110Z,2.33
2018-01-14T04:41:42.104Z,2.47
2018-01-14T04:42:42.093Z,2.49
2018-01-14T04:43:42.075Z,2.39
2018-01-14T04:44:42.057Z,2.49
2018-01-14T04:45:42.042Z,2.50
2018-01-14T04:46:42.032Z,2.50
2018-01-14T04:47:42.016Z,2.50
2018-01-14T04:48:42.014Z,2.50
2018-01-14T04:49:41.990Z,2.50
2018-01-14T04:50:41.978Z,2.39
2018-01-14T04:51:41.961Z,2.49
2018-01-14T04:52:41.955Z,2.38
2018-01-14T04:53:41.939Z,2.36
2018-01-14T04:54:41.925Z,2.49
2018-01-14T04:55:41.912Z,2.49
2018-01-14T04:56:41.901Z,2.47
2018-01-14T04:57:41.895Z,2.43
2018-01-14T04:58:41.876Z,2.46
2018-01-14T04:59:41.860Z,2.49
2018-01-14T05:00:41.851Z,2.46
2018-01-14T05:01:41.838Z,2.46
2018-01-14T05:02:41.833Z,2.49
2018-01-14T05:03:41.810Z,2.35
2018-01-14T05:04:41.803Z,2.46
2018-01-14T05:05:41.792Z,2.51
2018-01-14T05:06:41.770Z,2.36
2018-01-14T05:07:41.764Z,2.44
2018-01-14T05:08:41.753Z,2.46
2018-01-14T05:09:41.764Z,2.50
2018-01-14T05:10:41.727Z,2.42
2018-01-14T05:11:41.716Z,2.43
2018-01-14T05:12:41.717Z,2.47
2018-01-14T05:13:41.687Z,2.46
2018-01-14T05:14:41.674Z,2.43
2018-01-14T05:15:41.666Z,2.49
2018-01-14T05:16:41.653Z,2.51
2018-01-14T05:17:41.636Z,2.43
2018-01-14T05:18:41.635Z,2.46
2018-01-14T05:19:41.609Z,2.49
2018-01-14T05:20:41.602Z,2.44
2018-01-14T05:21:41.587Z,2.53
2018-01-14T05:22:41.571Z,2.38
2018-01-14T05:23:41.561Z,2.46
2018-01-14T05:24:41.553Z,2.46
2018-01-14T05:25:41.550Z,2.38
2018-01-14T05:26:41.523Z,2.38
2018-01-14T05:27:41.510Z,2.43
2018-01-14T05:28:41.499Z,2.38
2018-01-14T05:29:41.490Z,2.42
2018-01-14T05:30:41.493Z,2.46
2018-01-14T05:31:41.472Z,2.38
2018-01-14T05:32:41.448Z,2.36
2018-01-14T05:33:41.439Z,2.33
2018-01-14T05:34:41.421Z,2.36
2018-01-14T05:35:41.410Z,2.38
2018-01-14T05:36:41.434Z,2.39
2018-01-14T05:37:41.402Z,2.38
2018-01-14T05:38:41.388Z,2.36
2018-01-14T05:39:41.373Z,2.42
2018-01-14T05:40:41.349Z,2.31
2018-01-14T05:41:41.333Z,2.36
2018-01-14T05:42:41.322Z,2.38
2018-01-14T05:43:41.307Z,2.28
2018-01-14T05:44:41.293Z,2.31
2018-01-14T05:45:41.286Z,2.36
2018-01-14T05:46:41.273Z,2.39
2018-01-14T05:47:41.258Z,2.28
2018-01-14T05:48:41.247Z,2.26
2018-01-14T05:49:41.233Z,2.29
2018-01-14T05:50:41.216Z,2.28
2018-01-14T05:51:41.223Z,2.32
2018-01-14T05:52:41.204Z,2.35
2018-01-14T05:53:41.183Z,2.32
2018-01-14T05:54:41.166Z,2.42
2018-01-14T05:55:41.157Z,2.31
2018-01-14T05:56:41.146Z,2.43
2018-01-14T05:57:41.127Z,2.36
2018-01-14T05:58:41.117Z,2.28
2018-01-14T05:59:41.103Z,2.36
2018-01-14T06:00:41.090Z,2.32
2018-01-14T06:01:41.082Z,2.36
2018-01-14T06:02:41.064Z,2.36
2018-01-14T06:03:41.053Z,2.36
2018-01-14T06:04:41.038Z,2.32
2018-01-14T06:05:41.028Z,2.39
2018-01-14T06:06:41.016Z,2.28
2018-01-14T06:07:41.003Z,2.28
2018-01-14T06:08:40.988Z,2.31
2018-01-14T06:09:40.978Z,2.43
2018-01-14T06:10:40.960Z,2.22
2018-01-14T06:11:40.948Z,2.39
2018-01-14T06:12:40.937Z,2.38
2018-01-14T06:13:40.931Z,2.32
2018-01-14T06:14:40.919Z,2.38
2018-01-14T06:15:40.901Z,2.32
2018-01-14T06:16:40.884Z,2.32
2018-01-14T06:17:40.878Z,2.44
2018-01-14T06:18:40.868Z,2.24
2018-01-14T06:19:40.876Z,2.28
2018-01-14T06:20:40.841Z,2.26
2018-01-14T06:21:40.840Z,2.32
2018-01-14T06:22:40.808Z,2.33
2018-01-14T06:23:40.798Z,2.31
2018-01-14T06:24:40.782Z,2.28
2018-01-14T06:25:40.773Z,2.15
2018-01-14T06:26:40.772Z,2.20
2018-01-14T06:27:40.751Z,2.24
2018-01-14T06:28:40.753Z,2.20
2018-01-14T06:29:40.722Z,2.26
2018-01-14T06:30:40.707Z,2.18
2018-01-14T06:31:40.714Z,2.32
2018-01-14T06:32:40.683Z,2.31
2018-01-14T06:33:40.672Z,2.18
2018-01-14T06:34:40.659Z,2.22
2018-01-14T06:35:40.668Z,2.20
2018-01-14T06:36:40.632Z,2.15
2018-01-14T06:37:40.624Z,2.24
2018-01-14T06:38:40.609Z,2.18
2018-01-14T06:39:40.597Z,2.18
2018-01-14T06:40:40.586Z,2.22
2018-01-14T06:41:40.581Z,2.15
2018-01-14T06:42:40.555Z,2.15
2018-01-14T06:43:40.546Z,2.20
2018-01-14T06:44:40.532Z,2.18
2018-01-14T06:45:40.519Z,2.26
2018-01-14T06:46:40.506Z,2.15
2018-01-14T06:47:40.499Z,2.17
2018-01-14T06:48:40.479Z,2.20
2018-01-14T06:49:40.471Z,2.20
2018-01-14T06:50:40.456Z,2.17
2018-01-14T06:51:40.442Z,2.26
2018-01-14T06:52:40.431Z,2.18
2018-01-14T06:53:40.418Z,2.14
2018-01-14T06:54:40.406Z,2.18
2018-01-14T06:55:40.394Z,2.20
2018-01-14T06:56:40.376Z,2.17
2018-01-14T06:57:40.364Z,2.10
2018-01-14T06:58:40.354Z,2.10
2018-01-14T06:59:40.339Z,2.13
2018-01-14T07:00:40.331Z,2.11
2018-01-14T07:01:40.314Z,2.13
2018-01-14T07:02:40.301Z,2.08
2018-01-14T07:03:40.290Z,2.11
2018-01-14T07:04:40.279Z,2.08
2018-01-14T07:05:40.265Z,2.07
2018-01-14T07:06:40.249Z,2.14
2018-01-14T07:07:40.256Z,2.10
2018-01-14T07:08:40.233Z,2.10
2018-01-14T07:09:40.216Z,2.08
2018-01-14T07:10:40.201Z,2.10
2018-01-14T07:11:40.194Z,2.11
2018-01-14T07:12:40.197Z,2.14
2018-01-14T07:13:40.164Z,2.08
2018-01-14T07:14:40.152Z,2.17
2018-01-14T07:15:40.138Z,2.08
2018-01-14T07:16:40.125Z,2.08
2018-01-14T07:17:40.151Z,2.06
2018-01-14T07:18:40.231Z,2.10
2018-01-14T07:19:40.132Z,2.11
2018-01-14T07:20:40.076Z,2.08
2018-01-14T07:21:40.069Z,2.08
2018-01-14T07:22:40.063Z,2.15
2018-01-14T07:23:40.042Z,2.08
2018-01-14T07:24:40.045Z,2.10
2018-01-14T07:25:40.018Z,2.14
2018-01-14T07:26:40.001Z,2.06
2018-01-14T07:27:39.982Z,2.14
2018-01-14T07:28:39.973Z,2.14
2018-01-14T07:29:39.962Z,2.08
2018-01-14T07:30:39.949Z,2.08
2018-01-14T07:31:39.931Z,2.04
2018-01-14T07:32:39.922Z,2.07
2018-01-14T07:33:39.904Z,2.08
2018-01-14T07:34:39.897Z,2.14
2018-01-14T07:35:39.916Z,2.07
2018-01-14T07:36:39.908Z,2.07
2018-01-14T07:37:39.888Z,2.08
2018-01-14T07:38:39.849Z,2.06
2018-01-14T07:39:39.833Z,2.13
2018-01-14T07:40:39.821Z,2.18
2018-01-14T07:41:39.808Z,2.06
2018-01-14T07:42:39.800Z,2.15
2018-01-14T07:43:39.799Z,2.11
2018-01-14T07:44:39.775Z,2.13
2018-01-14T07:45:39.771Z,2.11
2018-01-14T07:46:39.743Z,2.10
2018-01-14T07:47:39.728Z,2.08
2018-01-14T07:48:39.734Z,2.13
2018-01-14T07:49:39.708Z,2.17
2018-01-14T07:50:39.701Z,2.08
2018-01-14T07:51:39.681Z,2.07
2018-01-14T07:52:39.667Z,2.06
2018-01-14T07:53:39.657Z,2.08
2018-01-14T07:54:39.640Z,2.10
2018-01-14T07:55:39.643Z,2.11
2018-01-14T07:56:39.628Z,2.08
2018-01-14T07:57:39.639Z,2.14
2018-01-14T07:58:39.594Z,2.08
2018-01-14T07:59:39.578Z,2.15
2018-01-14T08:00:39.567Z,2.08
2018-01-14T08:01:39.582Z,2.06
2018-01-14T08:02:39.566Z,2.11
2018-01-14T08:03:39.527Z,2.11
2018-01-14T08:04:39.521Z,1.91
2018-01-14T08:05:39.511Z,2.00
2018-01-14T08:06:39.489Z,1.99
2018-01-14T08:07:39.476Z,2.10
2018-01-14T08:08:39.479Z,2.13
2018-01-14T08:09:39.454Z,2.08
2018-01-14T08:10:39.440Z,2.06
2018-01-14T08:11:39.428Z,2.08
2018-01-14T08:12:39.412Z,2.20
2018-01-14T08:13:39.398Z,2.14
2018-01-14T08:14:39.389Z,2.07
2018-01-14T08:15:39.376Z,1.97
2018-01-14T08:16:39.364Z,2.08
2018-01-14T08:17:39.349Z,2.04
2018-01-14T08:18:39.342Z,2.02
2018-01-14T08:19:39.360Z,2.06
2018-01-14T08:20:39.312Z,2.00
2018-01-14T08:21:39.303Z,2.10
2018-01-14T08:22:39.291Z,2.11
2018-01-14T08:23:39.315Z,2.10
2018-01-14T08:24:39.271Z,2.11
2018-01-14T08:25:39.249Z,2.11
2018-01-14T08:26:39.239Z,2.02
2018-01-14T08:27:39.250Z,2.14
2018-01-14T08:28:39.213Z,1.92
2018-01-14T08:29:39.221Z,2.10
2018-01-14T08:30:39.200Z,2.02
2018-01-14T08:31:39.173Z,2.00
2018-01-14T08:32:39.164Z,1.94
2018-01-14T08:33:39.146Z,2.00
2018-01-14T08:34:39.134Z,2.17
2018-01-14T08:35:39.129Z,2.06
2018-01-14T08:36:39.109Z,2.07
2018-01-14T08:37:39.114Z,2.11
2018-01-14T08:38:39.090Z,2.07
2018-01-14T08:39:39.092Z,2.14
2018-01-14T08:40:39.068Z,2.10
2018-01-14T08:41:39.079Z,2.06
2018-01-14T08:42:39.041Z,2.04
2018-01-14T08:43:39.022Z,2.11
2018-01-14T08:44:39.009Z,2.13
2018-01-14T08:45:38.994Z,2.13
2018-01-14T08:46:38.981Z,1.97
2018-01-14T08:47:38.992Z,2.06
2018-01-14T08:48:38.954Z,2.10
2018-01-14T08:49:38.940Z,2.11
2018-01-14T08:50:38.930Z,2.08
2018-01-14T08:51:38.920Z,2.10
2018-01-14T08:52:38.906Z,2.10
2018-01-14T08:53:38.892Z,2.07
2018-01-14T08:54:38.887Z,2.13
2018-01-14T08:55:38.867Z,2.07
2018-01-14T08:56:38.857Z,2.13
2018-01-14T08:57:38.891Z,2.07
2018-01-14T08:58:38.876Z,2.10
2018-01-14T08:59:38.844Z,2.08
2018-01-14T09:00:38.820Z,2.08
2018-01-14T09:01:38.788Z,2.17
2018-01-14T09:02:38.785Z,2.17
2018-01-14T09:03:38.762Z,2.18
2018-01-14T09:04:38.766Z,2.31
2018-01-14T09:05:38.753Z,2.29
2018-01-14T09:06:38.730Z,2.35
2018-01-14T09:07:38.715Z,2.28
2018-01-14T09:08:38.702Z,2.35
2018-01-14T09:09:38.688Z,2.29
2018-01-14T09:10:38.683Z,2.36
2018-01-14T09:11:38.665Z,2.35
2018-01-14T09:12:38.647Z,2.44
2018-01-14T09:13:38.638Z,2.47
2018-01-14T09:14:38.631Z,2.50
2018-01-14T09:15:38.618Z,2.46
2018-01-14T09:16:38.601Z,2.50
2018-01-14T09:17:38.583Z,2.43
2018-01-14T09:18:38.574Z,2.51
2018-01-14T09:19:38.565Z,2.56
2018-01-14T09:20:38.551Z,2.49
2018-01-14T09:21:38.545Z,2.54
2018-01-14T09:22:38.551Z,2.53
2018-01-14T09:23:38.521Z,2.54
2018-01-14T09:24:38.540Z,2.51
2018-01-14T09:25:38.501Z,2.56
2018-01-14T09:26:38.485Z,2.61
2018-01-14T09:27:38.463Z,2.57
2018-01-14T09:28:38.456Z,2.60
2018-01-14T09:29:38.485Z,2.56
2018-01-14T09:30:38.433Z,2.56
2018-01-14T09:31:38.433Z,2.60
2018-01-14T09:32:38.407Z,2.53
2018-01-14T09:33:38.395Z,2.62
2018-01-14T09:34:38.379Z,2.56
2018-01-14T09:35:38.364Z,2.65
2018-01-14T09:36:38.350Z,2.54
2018-01-14T09:37:38.339Z,2.56
2018-01-14T09:38:38.325Z,2.49
2018-01-14T09:39:38.400Z,2.50
2018-01-14T09:40:38.302Z,2.53
2018-01-14T09:41:38.290Z,2.49
2018-01-14T09:42:38.287Z,2.57
2018-01-14T09:43:38.275Z,2.54
2018-01-14T09:44:38.262Z,2.56
2018-01-14T09:45:38.339Z,2.57
2018-01-14T09:46:38.240Z,2.57
2018-01-14T09:47:38.229Z,2.61
2018-01-14T09:48:38.222Z,2.56
2018-01-14T09:49:38.267Z,2.57
2018-01-14T09:50:38.199Z,2.56
2018-01-14T09:51:38.184Z,2.57
2018-01-14T09:52:38.156Z,2.64
2018-01-14T09:53:38.173Z,2.61
2018-01-14T09:54:38.133Z,2.69
2018-01-14T09:55:38.150Z,2.69
2018-01-14T09:56:38.113Z,2.68
2018-01-14T09:57:38.114Z,2.74
2018-01-14T09:58:38.083Z,2.79
2018-01-14T09:59:38.096Z,2.75
2018-01-14T10:00:38.061Z,2.79
2018-01-14T10:01:38.068Z,2.82
2018-01-14T10:02:38.068Z,2.85
2018-01-14T10:03:38.098Z,2.95
2018-01-14T10:04:38.008Z,2.90
2018-01-14T10:05:38.004Z,2.93
2018-01-14T10:06:37.995Z,2.97
2018-01-14T10:07:37.987Z,2.90
2018-01-14T10:08:37.971Z,2.92
2018-01-14T10:09:37.978Z,2.92
2018-01-14T10:10:37.936Z,2.95
2018-01-14T10:11:37.997Z,2.98
2018-01-14T10:12:37.942Z,2.90
2018-01-14T10:13:37.906Z,2.92
2018-01-14T10:14:37.933Z,3.05
2018-01-14T10:15:37.954Z,3.18
2018-01-14T10:16:37.874Z,3.08
2018-01-14T10:17:37.880Z,3.10
2018-01-14T10:18:37.969Z,3.07
2018-01-14T10:19:37.922Z,3.08
2018-01-14T10:20:37.817Z,3.04
2018-01-14T10:21:37.803Z,3.04
2018-01-14T10:22:37.801Z,3.10
2018-01-14T10:23:37.776Z,3.08
2018-01-14T10:24:37.775Z,3.10
2018-01-14T10:25:37.793Z,3.07
2018-01-14T10:26:37.853Z,3.05
2018-01-14T10:27:37.798Z,3.10
2018-01-14T10:28:37.726Z,3.16
2018-01-14T10:29:37.711Z,3.19
2018-01-14T10:30:37.706Z,3.19
2018-01-14T10:31:37.688Z,3.21
2018-01-14T10:32:37.718Z,3.14
2018-01-14T10:33:37.690Z,3.11
2018-01-14T10:34:37.670Z,3.11
2018-01-14T10:35:37.660Z,3.21
2018-01-14T10:36:37.661Z,3.28
2018-01-14T10:37:37.613Z,3.26
2018-01-14T10:38:37.605Z,3.25
2018-01-14T10:39:37.589Z,3.31
2018-01-14T10:40:37.577Z,3.26
2018-01-14T10:41:37.613Z,3.26
2018-01-14T10:42:37.554Z,3.25
2018-01-14T10:43:37.547Z,3.23
2018-01-14T10:44:37.531Z,3.22
2018-01-14T10:45:37.572Z,3.19
2018-01-14T10:46:37.544Z,3.14
2018-01-14T10:47:37.532Z,3.16
2018-01-14T10:48:37.518Z,3.11
2018-01-14T10:49:37.499Z,3.16
2018-01-14T10:50:37.491Z,3.13
2018-01-14T10:51:37.452Z,3.10
2018-01-14T10:52:37.506Z,3.07
2018-01-14T10:53:37.451Z,3.00
2018-01-14T10:54:37.421Z,3.04
2018-01-14T10:55:37.423Z,3.14
2018-01-14T10:56:37.424Z,3.16
2018-01-14T10:57:37.378Z,3.10
2018-01-14T10:58:37.379Z,3.18
2018-01-14T10:59:37.420Z,3.26
2018-01-14T11:00:37.398Z,3.26
2018-01-14T11:01:37.378Z,3.16
2018-01-14T11:02:37.328Z,3.22
2018-01-14T11:03:37.338Z,3.22
2018-01-14T11:04:37.306Z,3.29
2018-01-14T11:05:37.298Z,3.40
2018-01-14T11:06:37.389Z,3.41
2018-01-14T11:07:37.312Z,3.37
2018-01-14T11:08:37.255Z,3.44
2018-01-14T11:09:37.297Z,3.42
2018-01-14T11:10:37.276Z,3.29
2018-01-14T11:11:37.242Z,3.31
2018-01-14T11:12:37.211Z,3.44
2018-01-14T11:13:37.194Z,3.44
2018-01-14T11:14:37.185Z,3.50
2018-01-14T11:15:37.179Z,3.37
2018-01-14T11:16:37.166Z,3.40
2018-01-14T11:17:37.172Z,3.37
2018-01-14T11:18:37.153Z,3.45
2018-01-14T11:19:37.186Z,3.53
2018-01-14T11:20:37.123Z,3.51
2018-01-14T11:21:37.103Z,3.55
2018-01-14T11:22:37.090Z,3.53
2018-01-14T11:23:37.084Z,3.53
2018-01-14T11:24:37.086Z,3.51
2018-01-14T11:25:37.065Z,3.53
2018-01-14T11:26:37.057Z,3.68
2018-01-14T11:27:37.039Z,3.60
2018-01-14T11:28:37.037Z,3.65
2018-01-14T11:29:37.030Z,3.78
2018-01-14T11:30:37.009Z,3.81
2018-01-14T11:31:37.027Z,3.76
2018-01-14T11:32:37.014Z,3.77
2018-01-14T11:33:37.005Z,3.69
2018-01-14T11:34:36.957Z,3.78
2018-01-14T11:35:37.043Z,3.78
2018-01-14T11:36:36.960Z,3.74
2018-01-14T11:37:36.952Z,3.73
2018-01-14T11:38:37.066Z,3.84
2018-01-14T11:39:36.919Z,3.96
2018-01-14T11:40:36.905Z,3.96
2018-01-14T11:41:36.894Z,3.94
2018-01-14T11:42:36.896Z,3.95
2018-01-14T11:43:36.897Z,3.91
2018-01-14T11:44:36.885Z,4.05
2018-01-14T11:45:36.944Z,4.12
2018-01-14T11:46:36.835Z,4.05
2018-01-14T11:47:36.843Z,4.14
2018-01-14T11:48:36.910Z,4.20
2018-01-14T11:49:36.829Z,4.22
2018-01-14T11:50:36.893Z,4.19
2018-01-14T11:51:36.815Z,4.23
2018-01-14T11:52:36.774Z,4.19
2018-01-14T11:53:36.762Z,4.37
2018-01-14T11:54:36.760Z,4.49
2018-01-14T11:55:36.779Z,4.42
2018-01-14T11:56:36.756Z,4.49
2018-01-14T11:57:36.722Z,4.49
2018-01-14T11:58:36.709Z,4.48
2018-01-14T11:59:36.707Z,4.40
2018-01-14T12:00:36.694Z,4.49
2018-01-14T12:01:36.681Z,4.41
2018-01-14T12:02:36.712Z,4.48
2018-01-14T12:03:36.667Z,4.58
2018-01-14T12:04:36.647Z,4.59
2018-01-14T12:05:36.824Z,4.62
2018-01-14T12:06:36.643Z,4.55
2018-01-14T12:07:36.631Z,4.59
2018-01-14T12:08:36.626Z,4.71
2018-01-14T12:09:36.612Z,4.52
2018-01-14T12:10:36.612Z,4.60
2018-01-14T12:11:36.616Z,4.67
2018-01-14T12:12:36.571Z,4.66
2018-01-14T12:13:36.620Z,4.50
2018-01-14T12:14:36.596Z,4.59
2018-01-14T12:15:36.553Z,4.55
2018-01-14T12:16:36.541Z,4.48
2018-01-14T12:17:36.535Z,4.37
2018-01-14T12:18:36.551Z,4.42
2018-01-14T12:19:36.505Z,4.44
2018-01-14T12:20:36.497Z,4.78
2018-01-14T12:21:36.487Z,4.90
2018-01-14T12:22:36.481Z,4.92
2018-01-14T12:23:36.472Z,4.87
2018-01-14T12:24:36.455Z,4.77
2018-01-14T12:25:36.449Z,4.58
2018-01-14T12:26:36.481Z,4.60
2018-01-14T12:27:36.438Z,4.68
2018-01-14T12:28:36.449Z,4.71
2018-01-14T12:29:36.432Z,4.78
2018-01-14T12:30:36.409Z,4.82
2018-01-14T12:31:36.590Z,4.73
2018-01-14T12:32:36.390Z,4.77
2018-01-14T12:33:36.380Z,4.86
2018-01-14T12:34:36.385Z,4.89
2018-01-14T12:35:36.385Z,4.80
2018-01-14T12:36:36.440Z,4.80
2018-01-14T12:37:36.349Z,4.82
2018-01-14T12:38:36.380Z,4.77
2018-01-14T12:39:36.325Z,4.84
2018-01-14T12:40:36.317Z,5.05
2018-01-14T12:41:36.327Z,5.20
2018-01-14T12:42:36.305Z,5.32
2018-01-14T12:43:36.336Z,5.56
2018-01-14T12:44:36.290Z,5.47
2018-01-14T12:45:36.273Z,5.33
2018-01-14T12:46:36.284Z,5.30
2018-01-14T12:47:36.315Z,5.35
2018-01-14T12:48:36.271Z,5.38
2018-01-14T12:49:36.261Z,5.33
2018-01-14T12:50:36.266Z,5.25
2018-01-14T12:51:36.241Z,5.33
2018-01-14T12:52:36.399Z,5.41
2018-01-14T12:53:36.209Z,5.48
2018-01-14T12:54:36.197Z,5.66
2018-01-14T12:55:36.194Z,5.80
2018-01-14T12:56:36.215Z,5.93
2018-01-14T12:57:36.277Z,6.11
2018-01-14T12:58:36.176Z,6.16
2018-01-14T12:59:36.162Z,6.38
2018-01-14T13:00:36.152Z,6.41
2018-01-14T13:01:36.144Z,6.52
2018-01-14T13:02:36.151Z,6.44
2018-01-14T13:03:36.173Z,6.36
2018-01-14T13:04:36.126Z,6.20
2018-01-14T13:05:36.119Z,6.02
2018-01-14T13:06:36.127Z,6.12
2018-01-14T13:07:36.186Z,6.07
2018-01-14T13:08:36.091Z,5.97
2018-01-14T13:09:36.083Z,5.90
2018-01-14T13:10:36.111Z,5.97
2018-01-14T13:11:36.123Z,5.84
2018-01-14T13:12:36.315Z,5.61
2018-01-14T13:13:36.052Z,5.53
2018-01-14T13:14:36.062Z,5.50
2018-01-14T13:15:36.076Z,5.51
2018-01-14T13:16:36.036Z,5.61
2018-01-14T13:17:36.054Z,5.65
2018-01-14T13:18:36.086Z,5.66